| time (UTC) | temp C | wind direction | speed KPH | gust KPH | rain 1hr cm | rain 24hr cm | rain mn cm | humidity % | barometer mb |
| 20260507074410 | 18 | 215 | 3.2 | 3.2 | 0.00 | 0.00 | 0.00 | 10 | 1020.2 |
| 20260507073909 | 19 | 138 | 0.0 | 0.0 | 0.00 | 0.00 | 0.00 | 10 | 1020.2 |
| 20260507073405 | 19 | 127 | 1.6 | 1.6 | 0.00 | 0.00 | 0.00 | 10 | 1020.0 |
| 20260507072901 | 18 | 150 | 1.6 | 3.2 | 0.00 | 0.00 | 0.00 | 10 | 1020.1 |
| 20260507072359 | 19 | 136 | 0.0 | 1.6 | 0.00 | 0.00 | 0.00 | 10 | 1020.4 |
| 20260507071856 | 19 | 163 | 3.2 | 3.2 | 0.00 | 0.00 | 0.00 | 10 | 1020.3 |
| 20260507071353 | 19 | 124 | 0.0 | 0.0 | 0.00 | 0.00 | 0.00 | 10 | 1020.1 |
| 20260507070849 | 19 | 154 | 0.0 | 0.0 | 0.00 | 0.00 | 0.00 | 10 | 1020.1 |
| 20260507070347 | 19 | 210 | 0.0 | 0.0 | 0.00 | 0.00 | 0.00 | 10 | 1020.2 |
| 20260507065844 | 20 | 212 | 0.0 | 0.0 | 0.00 | 0.00 | 0.00 | 10 | 1020.0 |
| 20260507065340 | 19 | 191 | 0.0 | 0.0 | 0.00 | 0.00 | 0.00 | 10 | 1020.0 |
| 20260507064837 | 20 | 266 | 1.6 | 3.2 | 0.00 | 0.00 | 0.00 | 10 | 1019.9 |
| 20260507064336 | 20 | 350 | 3.2 | 4.8 | 0.00 | 0.00 | 0.00 | 10 | 1020.1 |
| 20260507063833 | 20 | 62 | 3.2 | 11.3 | 0.00 | 0.00 | 0.00 | 10 | 1019.9 |
| 20260507063330 | 20 | 131 | 4.8 | 8.0 | 0.00 | 0.00 | 0.00 | 10 | 1019.7 |
| 20260507062827 | 20 | 67 | 1.6 | 3.2 | 0.00 | 0.00 | 0.00 | 10 | 1019.7 |
| 20260507062324 | 20 | 55 | 0.0 | 0.0 | 0.00 | 0.00 | 0.00 | 10 | 1019.7 |
| 20260507061822 | 21 | 100 | 3.2 | 4.8 | 0.00 | 0.00 | 0.00 | 10 | 1019.6 |
| 20260507061319 | 21 | 147 | 4.8 | 8.0 | 0.00 | 0.00 | 0.00 | 10 | 1019.4 |
| 20260507060817 | 21 | 113 | 4.8 | 8.0 | 0.00 | 0.00 | 0.00 | 10 | 1019.5 |
| 20260507060314 | 21 | 93 | 12.9 | 16.1 | 0.00 | 0.00 | 0.00 | 10 | 1019.7 |
| 20260507055810 | 21 | 185 | 9.7 | 12.9 | 0.00 | 0.00 | 0.00 | 10 | 1019.5 |
| 20260507055306 | 21 | 122 | 12.9 | 16.1 | 0.00 | 0.00 | 0.00 | 10 | 1019.4 |
| 20260507054803 | 22 | 135 | 11.3 | 12.9 | 0.00 | 0.00 | 0.00 | 10 | 1019.3 |
| 20260507054259 | 22 | 114 | 8.0 | 12.9 | 0.00 | 0.00 | 0.00 | 10 | 1019.4 |
| 20260507053756 | 22 | 73 | 9.7 | 22.5 | 0.00 | 0.00 | 0.00 | 10 | 1019.1 |
| 20260507053254 | 22 | 106 | 17.7 | 20.9 | 0.00 | 0.00 | 0.00 | 10 | 1019.2 |
| 20260507052753 | 22 | 175 | 12.9 | 17.7 | 0.00 | 0.00 | 0.00 | 10 | 1019.3 |
| 20260507052249 | 22 | 151 | 19.3 | 24.1 | 0.00 | 0.00 | 0.00 | 10 | 1019.3 |
| 20260507051747 | 22 | 37 | 9.7 | 14.5 | 0.00 | 0.00 | 0.00 | 10 | 1019.1 |
| 20260507051244 | 22 | 6 | 14.5 | 17.7 | 0.00 | 0.00 | 0.00 | 10 | 1019.0 |
| 20260507050741 | 22 | 97 | 9.7 | 12.9 | 0.00 | 0.00 | 0.00 | 10 | 1019.0 |
| 20260507050237 | 22 | 122 | 11.3 | 17.7 | 0.00 | 0.00 | 0.00 | 10 | 1019.2 |
| 20260507045734 | 22 | 102 | 14.5 | 22.5 | 0.00 | 0.00 | 0.00 | 10 | 1019.0 |
| 20260507045230 | 22 | 61 | 9.7 | 14.5 | 0.00 | 0.00 | 0.00 | 10 | 1018.9 |
| 20260507044727 | 22 | 109 | 9.7 | 12.9 | 0.00 | 0.00 | 0.00 | 10 | 1019.0 |
| 20260507044223 | 22 | 129 | 12.9 | 16.1 | 0.00 | 0.00 | 0.00 | 10 | 1019.0 |
| 20260507043720 | 22 | 46 | 11.3 | 20.9 | 0.00 | 0.00 | 0.00 | 10 | 1019.0 |
| 20260507043217 | 22 | 83 | 11.3 | 22.5 | 0.00 | 0.00 | 0.00 | 10 | 1019.0 |
| 20260507042713 | 22 | 98 | 9.7 | 12.9 | 0.00 | 0.00 | 0.00 | 10 | 1018.8 |
| 20260507042208 | 22 | 95 | 9.7 | 12.9 | 0.00 | 0.00 | 0.00 | 10 | 1018.8 |
| 20260507041706 | 22 | 111 | 8.0 | 9.7 | 0.00 | 0.00 | 0.00 | 10 | 1018.4 |
| 20260507041203 | 22 | 61 | 12.9 | 16.1 | 0.00 | 0.00 | 0.00 | 10 | 1018.5 |
| 20260507040700 | 22 | 118 | 11.3 | 17.7 | 0.00 | 0.00 | 0.00 | 10 | 1018.4 |
| 20260507040156 | 22 | 85 | 17.7 | 22.5 | 0.00 | 0.00 | 0.00 | 10 | 1018.2 |
| 20260507035652 | 22 | 113 | 11.3 | 14.5 | 0.00 | 0.00 | 0.00 | 10 | 1018.5 |
| 20260507035148 | 23 | 64 | 9.7 | 16.1 | 0.00 | 0.00 | 0.00 | 10 | 1018.5 |
| 20260507034645 | 23 | 38 | 8.0 | 11.3 | 0.00 | 0.00 | 0.00 | 10 | 1018.3 |
| 20260507034142 | 23 | 59 | 8.0 | 11.3 | 0.00 | 0.00 | 0.00 | 10 | 1018.1 |
| 20260507033641 | 23 | 126 | 12.9 | 20.9 | 0.00 | 0.00 | 0.00 | 10 | 1018.3 |
| 20260507033138 | 23 | 133 | 11.3 | 14.5 | 0.00 | 0.00 | 0.00 | 10 | 1018.0 |
| 20260507032635 | 23 | 104 | 6.4 | 9.7 | 0.00 | 0.00 | 0.00 | 10 | 1018.1 |
| 20260507032131 | 23 | 137 | 16.1 | 20.9 | 0.00 | 0.00 | 0.00 | 10 | 1017.7 |
| 20260507031628 | 23 | 44 | 9.7 | 14.5 | 0.00 | 0.00 | 0.00 | 10 | 1017.8 |
| 20260507031124 | 23 | 33 | 11.3 | 14.5 | 0.00 | 0.00 | 0.00 | 10 | 1017.8 |
| 20260507030621 | 23 | 69 | 14.5 | 24.1 | 0.00 | 0.00 | 0.00 | 10 | 1017.6 |
| 20260507030119 | 23 | 28 | 12.9 | 14.5 | 0.00 | 0.00 | 0.00 | 10 | 1017.5 |
| 20260507025615 | 23 | 108 | 3.2 | 4.8 | 0.00 | 0.00 | 0.00 | 10 | 1017.2 |
| 20260507025113 | 23 | 11 | 14.5 | 20.9 | 0.00 | 0.00 | 0.00 | 10 | 1017.3 |
| 20260507024611 | 23 | 20 | 11.3 | 16.1 | 0.00 | 0.00 | 0.00 | 10 | 1017.3 |
| 20260507024108 | 24 | 163 | 9.7 | 16.1 | 0.00 | 0.00 | 0.00 | 10 | 1017.2 |
| 20260507023603 | 24 | 64 | 14.5 | 17.7 | 0.00 | 0.00 | 0.00 | 10 | 1017.2 |
| 20260507023101 | 24 | 79 | 8.0 | 11.3 | 0.00 | 0.00 | 0.00 | 10 | 1017.0 |
| 20260507022557 | 24 | 55 | 11.3 | 14.5 | 0.00 | 0.00 | 0.00 | 10 | 1017.1 |
| 20260507022052 | 25 | 62 | 14.5 | 20.9 | 0.00 | 0.00 | 0.00 | 10 | 1017.0 |
| 20260507021549 | 25 | 38 | 9.7 | 12.9 | 0.00 | 0.00 | 0.00 | 10 | 1017.1 |
| 20260507021045 | 25 | 112 | 8.0 | 17.7 | 0.00 | 0.00 | 0.00 | 10 | 1017.1 |
| 20260507020543 | 25 | 97 | 6.4 | 12.9 | 0.00 | 0.00 | 0.00 | 10 | 1017.1 |
| 20260507020039 | 25 | 42 | 8.0 | 9.7 | 0.00 | 0.00 | 0.00 | 10 | 1017.0 |
| 20260507015538 | 25 | 131 | 12.9 | 20.9 | 0.00 | 0.00 | 0.00 | 10 | 1016.8 |
| 20260507015035 | 25 | 12 | 12.9 | 20.9 | 0.00 | 0.00 | 0.00 | 10 | 1016.7 |
| 20260507014531 | 26 | 101 | 8.0 | 12.9 | 0.00 | 0.00 | 0.00 | 10 | 1016.9 |
| 20260507014027 | 26 | 112 | 11.3 | 24.1 | 0.00 | 0.00 | 0.00 | 10 | 1017.0 |
| 20260507013524 | 26 | 83 | 12.9 | 17.7 | 0.00 | 0.00 | 0.00 | 10 | 1016.9 |
| 20260507013021 | 26 | 56 | 6.4 | 9.7 | 0.00 | 0.00 | 0.00 | 10 | 1016.9 |
| 20260507012519 | 26 | 53 | 8.0 | 11.3 | 0.00 | 0.00 | 0.00 | 10 | 1016.8 |
| 20260507012015 | 26 | 35 | 14.5 | 22.5 | 0.00 | 0.00 | 0.00 | 10 | 1016.8 |
| 20260507011512 | 26 | 120 | 8.0 | 9.7 | 0.00 | 0.00 | 0.00 | 10 | 1016.7 |
| 20260507011008 | 26 | 164 | 6.4 | 9.7 | 0.00 | 0.00 | 0.00 | 10 | 1016.7 |
| 20260507010503 | 26 | 86 | 9.7 | 12.9 | 0.00 | 0.00 | 0.00 | 10 | 1016.8 |
| 20260507005959 | 26 | 141 | 4.8 | 9.7 | 0.00 | 0.00 | 0.00 | 10 | 1016.7 |
| 20260507005457 | 27 | 56 | 6.4 | 9.7 | 0.00 | 0.00 | 0.00 | 10 | 1016.6 |
| 20260507004953 | 27 | 79 | 11.3 | 16.1 | 0.00 | 0.00 | 0.00 | 10 | 1016.6 |
| 20260507004450 | 27 | 121 | 6.4 | 8.0 | 0.00 | 0.00 | 0.00 | 10 | 1016.5 |
| 20260507003948 | 27 | 121 | 6.4 | 9.7 | 0.00 | 0.00 | 0.00 | 10 | 1016.7 |
| 20260507003443 | 27 | 48 | 9.7 | 12.9 | 0.00 | 0.00 | 0.00 | 10 | 1016.8 |
| 20260507002938 | 27 | 69 | 9.7 | 14.5 | 0.00 | 0.00 | 0.00 | 10 | 1016.7 |
| 20260507002435 | 27 | 154 | 14.5 | 16.1 | 0.00 | 0.00 | 0.00 | 10 | 1016.6 |
| 20260507001931 | 27 | 157 | 4.8 | 8.0 | 0.00 | 0.00 | 0.00 | 10 | 1016.3 |
| 20260507001428 | 27 | 107 | 4.8 | 4.8 | 0.00 | 0.00 | 0.00 | 10 | 1016.4 |
| 20260507000926 | 27 | 83 | 11.3 | 16.1 | 0.00 | 0.00 | 0.00 | 10 | 1016.4 |
| 20260507000421 | 27 | 16 | 4.8 | 8.0 | 0.00 | 0.00 | 0.00 | 10 | 1016.4 |
| 20260506235917 | 27 | 67 | 8.0 | 12.9 | 0.00 | 0.00 | 0.00 | 10 | 1016.3 |
| 20260506235415 | 27 | 14 | 11.3 | 17.7 | 0.00 | 0.00 | 0.00 | 10 | 1016.3 |
| 20260506234910 | 27 | 65 | 11.3 | 17.7 | 0.00 | 0.00 | 0.00 | 10 | 1016.2 |
| 20260506234408 | 27 | 31 | 9.7 | 12.9 | 0.00 | 0.00 | 0.00 | 10 | 1016.2 |
| 20260506233906 | 27 | 23 | 11.3 | 14.5 | 0.00 | 0.00 | 0.00 | 10 | 1016.2 |
| 20260506233401 | 27 | 14 | 17.7 | 24.1 | 0.00 | 0.00 | 0.00 | 10 | 1015.8 |
| 20260506232858 | 28 | 64 | 16.1 | 20.9 | 0.00 | 0.00 | 0.00 | 10 | 1015.8 |
| 20260506232354 | 28 | 44 | 9.7 | 12.9 | 0.00 | 0.00 | 0.00 | 10 | 1016.0 |
| 20260506231850 | 28 | 81 | 9.7 | 17.7 | 0.00 | 0.00 | 0.00 | 10 | 1015.9 |
| 20260506231348 | 27 | 62 | 4.8 | 8.0 | 0.00 | 0.00 | 0.00 | 10 | 1016.0 |
| 20260506230845 | 28 | 163 | 0.0 | 1.6 | 0.00 | 0.00 | 0.00 | 10 | 1016.0 |
| 20260506230342 | 27 | 51 | 9.7 | 11.3 | 0.00 | 0.00 | 0.00 | 10 | 1015.8 |
| 20260506225838 | 27 | 41 | 4.8 | 4.8 | 0.00 | 0.00 | 0.00 | 10 | 1015.8 |
| 20260506225336 | 28 | 164 | 4.8 | 11.3 | 0.00 | 0.00 | 0.00 | 10 | 1015.9 |
| 20260506224833 | 27 | 42 | 4.8 | 4.8 | 0.00 | 0.00 | 0.00 | 10 | 1015.9 |
| 20260506224330 | 27 | 358 | 4.8 | 4.8 | 0.00 | 0.00 | 0.00 | 10 | 1015.9 |
| 20260506223826 | 27 | 7 | 9.7 | 11.3 | 0.00 | 0.00 | 0.00 | 10 | 1016.0 |
| 20260506223321 | 27 | 4 | 11.3 | 16.1 | 0.00 | 0.00 | 0.00 | 10 | 1016.2 |
| 20260506222819 | 27 | 6 | 9.7 | 11.3 | 0.00 | 0.00 | 0.00 | 10 | 1016.3 |
| 20260506222314 | 27 | 9 | 8.0 | 12.9 | 0.00 | 0.00 | 0.00 | 10 | 1016.2 |
| 20260506221813 | 28 | 48 | 6.4 | 8.0 | 0.00 | 0.00 | 0.00 | 10 | 1016.2 |
| 20260506221310 | 27 | 21 | 6.4 | 9.7 | 0.00 | 0.00 | 0.00 | 10 | 1016.4 |
| 20260506220807 | 28 | 103 | 25.7 | 37.0 | 0.00 | 0.00 | 0.00 | 10 | 1015.6 |
| 20260506220302 | 27 | 43 | 8.0 | 9.7 | 0.00 | 0.00 | 0.00 | 10 | 1016.4 |
| 20260506215759 | 28 | 39 | 11.3 | 14.5 | 0.00 | 0.00 | 0.00 | 10 | 1016.4 |
| 20260506215255 | 28 | 74 | 3.2 | 4.8 | 0.00 | 0.00 | 0.00 | 10 | 1016.3 |
| 20260506214751 | 28 | 151 | 1.6 | 4.8 | 0.00 | 0.00 | 0.00 | 10 | 1016.4 |
| 20260506214248 | 27 | 155 | 3.2 | 4.8 | 0.00 | 0.00 | 0.00 | 10 | 1016.4 |
| 20260506213746 | 27 | 63 | 1.6 | 1.6 | 0.00 | 0.00 | 0.00 | 10 | 1016.6 |
| 20260506213243 | 28 | 9 | 14.5 | 17.7 | 0.00 | 0.00 | 0.00 | 10 | 1016.6 |
| 20260506212740 | 28 | 76 | 3.2 | 3.2 | 0.00 | 0.00 | 0.00 | 10 | 1016.5 |
| 20260506212236 | 27 | 133 | 1.6 | 3.2 | 0.00 | 0.00 | 0.00 | 10 | 1016.6 |
| 20260506211732 | 27 | 328 | 8.0 | 9.7 | 0.00 | 0.00 | 0.00 | 10 | 1016.7 |
| 20260506211228 | 27 | 278 | 0.0 | 0.0 | 0.00 | 0.00 | 0.00 | 10 | 1016.8 |
| 20260506210725 | 27 | 126 | 3.2 | 4.8 | 0.00 | 0.00 | 0.00 | 10 | 1016.7 |
| 20260506210222 | 27 | 280 | 3.2 | 3.2 | 0.00 | 0.00 | 0.00 | 10 | 1016.5 |
| 20260506205719 | 27 | 179 | 0.0 | 1.6 | 0.00 | 0.00 | 0.00 | 10 | 1016.7 |
| 20260506205214 | 27 | 231 | 6.4 | 9.7 | 0.00 | 0.00 | 0.00 | 10 | 1016.6 |
| 20260506204712 | 27 | 48 | 3.2 | 3.2 | 0.00 | 0.00 | 0.00 | 10 | 1016.9 |
| 20260506204209 | 26 | 40 | 8.0 | 9.7 | 0.00 | 0.00 | 0.00 | 10 | 1017.0 |
| 20260506203707 | 27 | 51 | 6.4 | 11.3 | 0.00 | 0.00 | 0.00 | 10 | 1016.7 |
| 20260506203204 | 25 | 116 | 4.8 | 8.0 | 0.00 | 0.00 | 0.00 | 10 | 1016.8 |
| 20260506202702 | 26 | 249 | 4.8 | 4.8 | 0.00 | 0.00 | 0.00 | 10 | 1017.0 |
| 20260506202157 | 27 | 91 | 4.8 | 4.8 | 0.00 | 0.00 | 0.00 | 10 | 1016.8 |
| 20260506201655 | 27 | 145 | 3.2 | 4.8 | 0.00 | 0.00 | 0.00 | 10 | 1017.0 |
| 20260506201150 | 27 | 166 | 0.0 | 1.6 | 0.00 | 0.00 | 0.00 | 10 | 1017.0 |
| 20260506200648 | 28 | 152 | 0.0 | 1.6 | 0.00 | 0.00 | 0.00 | 10 | 1017.1 |
| 20260506200144 | 27 | 145 | 6.4 | 8.0 | 0.00 | 0.00 | 0.00 | 10 | 1017.2 |
| 20260506195641 | 27 | 172 | 0.0 | 0.0 | 0.00 | 0.00 | 0.00 | 10 | 1017.3 |
| 20260506195137 | 25 | 182 | 8.0 | 11.3 | 0.00 | 0.00 | 0.00 | 10 | 1017.1 |
| 20260506194635 | 25 | 241 | 12.9 | 14.5 | 0.00 | 0.00 | 0.00 | 10 | 1017.3 |
| 20260506194131 | 25 | 284 | 4.8 | 4.8 | 0.00 | 0.00 | 0.00 | 10 | 1017.2 |
| 20260506193629 | 25 | 262 | 4.8 | 4.8 | 0.00 | 0.00 | 0.00 | 10 | 1017.2 |
| 20260506193126 | 27 | 187 | 4.8 | 8.0 | 0.00 | 0.00 | 0.00 | 10 | 1017.5 |
| 20260506192622 | 26 | 64 | 0.0 | 1.6 | 0.00 | 0.00 | 0.00 | 10 | 1017.5 |
| 20260506192118 | 26 | 121 | 4.8 | 8.0 | 0.00 | 0.00 | 0.00 | 10 | 1017.7 |
| 20260506191615 | 25 | 161 | 1.6 | 8.0 | 0.00 | 0.00 | 0.00 | 10 | 1017.3 |
| 20260506191111 | 26 | 147 | 3.2 | 3.2 | 0.00 | 0.00 | 0.00 | 10 | 1017.7 |
| 20260506190609 | 26 | 122 | 6.4 | 9.7 | 0.00 | 0.00 | 0.00 | 10 | 1017.6 |
| 20260506190105 | 25 | 138 | 1.6 | 3.2 | 0.00 | 0.00 | 0.00 | 10 | 1017.5 |
| 20260506185602 | 25 | 110 | 9.7 | 12.9 | 0.00 | 0.00 | 0.00 | 10 | 1017.8 |
| 20260506185053 | 25 | 150 | 1.6 | 1.6 | 0.00 | 0.00 | 0.00 | 10 | 1017.8 |
| 20260506184551 | 25 | 112 | 6.4 | 8.0 | 0.00 | 0.00 | 0.00 | 10 | 1017.9 |
| 20260506184048 | 26 | 141 | 1.6 | 3.2 | 0.00 | 0.00 | 0.00 | 10 | 1017.8 |
| 20260506183544 | 25 | 131 | 6.4 | 9.7 | 0.00 | 0.00 | 0.00 | 10 | 1017.9 |
| 20260506183041 | 24 | 146 | 0.0 | 0.0 | 0.00 | 0.00 | 0.00 | 10 | 1017.9 |
| 20260506182538 | 23 | 216 | 0.0 | 1.6 | 0.00 | 0.00 | 0.00 | 10 | 1018.1 |
| 20260506182035 | 23 | 17 | 4.8 | 4.8 | 0.00 | 0.00 | 0.00 | 10 | 1018.2 |
| 20260506181533 | 25 | 228 | 4.8 | 8.0 | 0.00 | 0.00 | 0.00 | 10 | 1018.0 |
| 20260506181029 | 23 | 97 | 1.6 | 3.2 | 0.00 | 0.00 | 0.00 | 10 | 1018.4 |
| 20260506180526 | 22 | 322 | 9.7 | 11.3 | 0.00 | 0.00 | 0.00 | 10 | 1018.1 |
| 20260506180023 | 22 | 307 | 4.8 | 8.0 | 0.00 | 0.00 | 0.00 | 10 | 1018.0 |
| 20260506175519 | 22 | 207 | 3.2 | 3.2 | 0.00 | 0.00 | 0.00 | 10 | 1018.3 |
| 20260506175016 | 23 | 269 | 11.3 | 12.9 | 0.00 | 0.00 | 0.00 | 10 | 1018.3 |
| 20260506174515 | 22 | 224 | 8.0 | 9.7 | 0.00 | 0.00 | 0.00 | 10 | 1018.0 |
| 20260506174010 | 23 | 223 | 4.8 | 4.8 | 0.00 | 0.00 | 0.00 | 10 | 1018.3 |
| 20260506173508 | 22 | 210 | 4.8 | 8.0 | 0.00 | 0.00 | 0.00 | 10 | 1018.4 |
| 20260506173005 | 21 | 231 | 9.7 | 11.3 | 0.00 | 0.00 | 0.00 | 10 | 1018.4 |
| 20260506172502 | 21 | 267 | 6.4 | 8.0 | 0.00 | 0.00 | 0.00 | 10 | 1018.5 |
| 20260506171958 | 21 | 271 | 6.4 | 9.7 | 0.00 | 0.00 | 0.00 | 10 | 1018.4 |
| 20260506171455 | 21 | 167 | 3.2 | 3.2 | 0.00 | 0.00 | 0.00 | 10 | 1018.3 |
| 20260506170953 | 21 | 233 | 14.5 | 16.1 | 0.00 | 0.00 | 0.00 | 10 | 1018.2 |
| 20260506170450 | 21 | 168 | 0.0 | 1.6 | 0.00 | 0.00 | 0.00 | 10 | 1018.1 |
| 20260506165948 | 20 | 220 | 4.8 | 4.8 | 0.00 | 0.00 | 0.00 | 10 | 1018.2 |
| 20260506165447 | 20 | 235 | 3.2 | 3.2 | 0.00 | 0.00 | 0.00 | 10 | 1018.3 |
| 20260506164942 | 20 | 208 | 6.4 | 8.0 | 0.00 | 0.00 | 0.00 | 10 | 1018.2 |
| 20260506164439 | 20 | 218 | 3.2 | 3.2 | 0.00 | 0.00 | 0.00 | 10 | 1018.1 |
| 20260506163936 | 20 | 229 | 8.0 | 9.7 | 0.00 | 0.00 | 0.00 | 10 | 1018.2 |
| 20260506163431 | 21 | 237 | 11.3 | 12.9 | 0.00 | 0.00 | 0.00 | 10 | 1018.2 |
| 20260506162921 | 20 | 273 | 0.0 | 1.6 | 0.00 | 0.00 | 0.00 | 10 | 1018.1 |
| 20260506162419 | 20 | 211 | 4.8 | 4.8 | 0.00 | 0.00 | 0.00 | 10 | 1018.3 |
| 20260506161916 | 20 | 301 | 8.0 | 11.3 | 0.00 | 0.00 | 0.00 | 10 | 1018.0 |
| 20260506161414 | 20 | 282 | 8.0 | 11.3 | 0.00 | 0.00 | 0.00 | 10 | 1018.1 |
| 20260506160911 | 20 | 204 | 1.6 | 1.6 | 0.00 | 0.00 | 0.00 | 10 | 1018.3 |
| 20260506160408 | 19 | 195 | 9.7 | 12.9 | 0.00 | 0.00 | 0.00 | 10 | 1018.1 |
| 20260506155906 | 19 | 325 | 9.7 | 11.3 | 0.00 | 0.00 | 0.00 | 10 | 1018.3 |
| 20260506155403 | 18 | 299 | 3.2 | 3.2 | 0.00 | 0.00 | 0.00 | 10 | 1018.4 |
| 20260506153525 | 18 | 292 | 4.8 | 4.8 | 0.00 | 0.00 | 0.00 | 10 | 1018.1 |
| 20260506153023 | 18 | 248 | 0.0 | 1.6 | 0.00 | 0.00 | 0.00 | 10 | 1018.0 |
| 20260506152519 | 18 | 182 | 0.0 | 0.0 | 0.00 | 0.00 | 0.00 | 10 | 1018.4 |
| 20260506152018 | 18 | 170 | 0.0 | 0.0 | 0.00 | 0.00 | 0.00 | 10 | 1018.4 |
| 20260506151515 | 18 | 210 | 0.0 | 0.0 | 0.00 | 0.00 | 0.00 | 10 | 1018.5 |
| 20260506151012 | 17 | 210 | 3.2 | 3.2 | 0.00 | 0.00 | 0.00 | 10 | 1018.2 |
| 20260506150508 | 18 | 214 | 4.8 | 4.8 | 0.00 | 0.00 | 0.00 | 10 | 1018.1 |
| 20260506150005 | 17 | 189 | 0.0 | 0.0 | 0.00 | 0.00 | 0.00 | 10 | 1018.3 |
| 20260506145502 | 18 | 167 | 0.0 | 0.0 | 0.00 | 0.00 | 0.00 | 10 | 1018.0 |
| 20260506145000 | 18 | 176 | 0.0 | 1.6 | 0.00 | 0.00 | 0.00 | 10 | 1018.1 |
| 20260506144456 | 18 | 152 | 0.0 | 0.0 | 0.00 | 0.00 | 0.00 | 10 | 1018.0 |
| 20260506143954 | 18 | 158 | 0.0 | 1.6 | 0.00 | 0.00 | 0.00 | 10 | 1018.1 |
| 20260506143451 | 17 | 152 | 1.6 | 1.6 | 0.00 | 0.00 | 0.00 | 10 | 1017.8 |
| 20260506142949 | 17 | 105 | 3.2 | 3.2 | 0.00 | 0.00 | 0.00 | 10 | 1017.8 |
| 20260506142447 | 17 | 119 | 3.2 | 3.2 | 0.00 | 0.00 | 0.00 | 10 | 1017.9 |
| 20260506141944 | 16 | 131 | 1.6 | 1.6 | 0.00 | 0.00 | 0.00 | 10 | 1017.8 |
| 20260506141442 | 16 | 135 | 1.6 | 3.2 | 0.00 | 0.00 | 0.00 | 10 | 1017.6 |
| 20260506140941 | 16 | 146 | 0.0 | 1.6 | 0.00 | 0.00 | 0.00 | 10 | 1017.9 |
| 20260506140437 | 15 | 151 | 1.6 | 3.2 | 0.00 | 0.00 | 0.00 | 10 | 1017.7 |
| 20260506135934 | 15 | 127 | 1.6 | 3.2 | 0.00 | 0.00 | 0.00 | 10 | 1017.5 |
| 20260506135431 | 15 | 129 | 3.2 | 3.2 | 0.00 | 0.00 | 0.00 | 10 | 1017.2 |
| 20260506134927 | 16 | 166 | 0.0 | 0.0 | 0.00 | 0.00 | 0.00 | 10 | 1017.5 |
| 20260506134423 | 15 | 165 | 0.0 | 1.6 | 0.00 | 0.00 | 0.00 | 10 | 1017.3 |
| 20260506133921 | 15 | 182 | 3.2 | 3.2 | 0.00 | 0.00 | 0.00 | 10 | 1017.0 |
| 20260506133417 | 15 | 153 | 4.8 | 4.8 | 0.00 | 0.00 | 0.00 | 10 | 1017.0 |
| 20260506132914 | 14 | 173 | 1.6 | 1.6 | 0.00 | 0.00 | 0.00 | 10 | 1017.0 |
| 20260506132411 | 13 | 183 | 1.6 | 1.6 | 0.00 | 0.00 | 0.00 | 10 | 1016.9 |
| 20260506131909 | 13 | 205 | 0.0 | 0.0 | 0.00 | 0.00 | 0.00 | 10 | 1016.7 |
| 20260506131405 | 13 | 205 | 0.0 | 0.0 | 0.00 | 0.00 | 0.00 | 10 | 1016.9 |
| 20260506130902 | 14 | 207 | 0.0 | 0.0 | 0.00 | 0.00 | 0.00 | 10 | 1016.8 |
| 20260506130358 | 14 | 205 | 0.0 | 0.0 | 0.00 | 0.00 | 0.00 | 10 | 1016.4 |
| 20260506125857 | 13 | 205 | 0.0 | 0.0 | 0.00 | 0.00 | 0.00 | 10 | 1016.7 |
| 20260506125355 | 13 | 205 | 0.0 | 0.0 | 0.00 | 0.00 | 0.00 | 10 | 1016.6 |
| 20260506124853 | 14 | 207 | 0.0 | 0.0 | 0.00 | 0.00 | 0.00 | 10 | 1016.3 |
| 20260506124349 | 14 | 181 | 0.0 | 1.6 | 0.00 | 0.00 | 0.00 | 10 | 1016.4 |
| 20260506123847 | 14 | 193 | 1.6 | 1.6 | 0.00 | 0.00 | 0.00 | 10 | 1016.2 |
| 20260506123345 | 14 | 187 | 3.2 | 3.2 | 0.00 | 0.00 | 0.00 | 10 | 1016.0 |
| 20260506122842 | 14 | 176 | 1.6 | 1.6 | 0.00 | 0.00 | 0.00 | 10 | 1016.0 |
| 20260506122339 | 13 | 160 | 0.0 | 1.6 | 0.00 | 0.00 | 0.00 | 10 | 1016.0 |
| 20260506121837 | 13 | 159 | 1.6 | 1.6 | 0.00 | 0.00 | 0.00 | 10 | 1016.0 |
| 20260506121334 | 13 | 168 | 0.0 | 0.0 | 0.00 | 0.00 | 0.00 | 10 | 1016.0 |
| 20260506120831 | 13 | 174 | 1.6 | 1.6 | 0.00 | 0.00 | 0.00 | 10 | 1015.8 |
| 20260506120329 | 13 | 194 | 3.2 | 3.2 | 0.00 | 0.00 | 0.00 | 10 | 1015.8 |
| 20260506115826 | 13 | 202 | 0.0 | 1.6 | 0.00 | 0.00 | 0.00 | 10 | 1015.7 |
| 20260506115324 | 13 | 203 | 0.0 | 0.0 | 0.00 | 0.00 | 0.00 | 10 | 1015.8 |
| 20260506114822 | 15 | 286 | 1.6 | 1.6 | 0.00 | 0.00 | 0.00 | 10 | 1015.8 |
| 20260506114320 | 15 | 161 | 1.6 | 1.6 | 0.00 | 0.00 | 0.00 | 10 | 1015.7 |
| 20260506113818 | 14 | 160 | 0.0 | 1.6 | 0.00 | 0.00 | 0.00 | 10 | 1015.4 |
| 20260506113315 | 13 | 158 | 1.6 | 1.6 | 0.00 | 0.00 | 0.00 | 10 | 1015.7 |
| 20260506112811 | 13 | 134 | 3.2 | 3.2 | 0.00 | 0.00 | 0.00 | 10 | 1015.6 |
| 20260506112309 | 13 | 88 | 4.8 | 4.8 | 0.00 | 0.00 | 0.00 | 10 | 1015.5 |
| 20260506111806 | 15 | 169 | 0.0 | 0.0 | 0.00 | 0.00 | 0.00 | 10 | 1015.2 |
| 20260506111304 | 15 | 163 | 0.0 | 1.6 | 0.00 | 0.00 | 0.00 | 10 | 1015.3 |
| 20260506110801 | 15 | 156 | 1.6 | 3.2 | 0.00 | 0.00 | 0.00 | 10 | 1015.3 |
| 20260506110258 | 15 | 163 | 3.2 | 3.2 | 0.00 | 0.00 | 0.00 | 10 | 1015.2 |
| 20260506105755 | 15 | 159 | 4.8 | 4.8 | 0.00 | 0.00 | 0.00 | 10 | 1015.1 |
| 20260506105252 | 15 | 177 | 0.0 | 0.0 | 0.00 | 0.00 | 0.00 | 10 | 1015.1 |
| 20260506104749 | 15 | 163 | 0.0 | 0.0 | 0.00 | 0.00 | 0.00 | 10 | 1015.1 |
| 20260506104247 | 15 | 170 | 0.0 | 0.0 | 0.00 | 0.00 | 0.00 | 10 | 1015.0 |
| 20260506103744 | 15 | 170 | 0.0 | 0.0 | 0.00 | 0.00 | 0.00 | 10 | 1015.0 |
| 20260506103241 | 15 | 170 | 0.0 | 0.0 | 0.00 | 0.00 | 0.00 | 10 | 1015.0 |
| 20260506102739 | 15 | 169 | 0.0 | 0.0 | 0.00 | 0.00 | 0.00 | 10 | 1015.0 |
| 20260506102237 | 15 | 164 | 0.0 | 0.0 | 0.00 | 0.00 | 0.00 | 10 | 1015.1 |
| 20260506101734 | 15 | 164 | 0.0 | 0.0 | 0.00 | 0.00 | 0.00 | 10 | 1014.7 |
| 20260506101230 | 15 | 164 | 0.0 | 0.0 | 0.00 | 0.00 | 0.00 | 10 | 1014.8 |
| 20260506100728 | 15 | 164 | 0.0 | 0.0 | 0.00 | 0.00 | 0.00 | 10 | 1015.0 |
| 20260506100226 | 15 | 162 | 0.0 | 0.0 | 0.00 | 0.00 | 0.00 | 10 | 1014.7 |
| 20260506095724 | 15 | 153 | 0.0 | 0.0 | 0.00 | 0.00 | 0.00 | 10 | 1014.6 |
| 20260506095220 | 15 | 206 | 1.6 | 3.2 | 0.00 | 0.00 | 0.00 | 10 | 1014.6 |
| 20260506094717 | 15 | 162 | 4.8 | 4.8 | 0.00 | 0.00 | 0.00 | 10 | 1014.6 |
| 20260506094216 | 16 | 189 | 0.0 | 0.0 | 0.00 | 0.00 | 0.00 | 10 | 1014.7 |
| 20260506093714 | 16 | 162 | 1.6 | 1.6 | 0.00 | 0.00 | 0.00 | 10 | 1014.5 |
| 20260506093211 | 16 | 152 | 3.2 | 3.2 | 0.00 | 0.00 | 0.00 | 10 | 1014.3 |
| 20260506092709 | 16 | 196 | 0.0 | 0.0 | 0.00 | 0.00 | 0.00 | 10 | 1014.5 |
| 20260506092206 | 17 | 218 | 3.2 | 3.2 | 0.00 | 0.00 | 0.00 | 10 | 1014.4 |
| 20260506091704 | 16 | 155 | 0.0 | 0.0 | 0.00 | 0.00 | 0.00 | 10 | 1014.4 |
| 20260506091201 | 17 | 177 | 0.0 | 0.0 | 0.00 | 0.00 | 0.00 | 10 | 1014.5 |
| 20260506090659 | 17 | 187 | 0.0 | 0.0 | 0.00 | 0.00 | 0.00 | 10 | 1014.2 |
| 20260506090155 | 16 | 200 | 1.6 | 3.2 | 0.00 | 0.00 | 0.00 | 10 | 1014.3 |
| 20260506085652 | 17 | 193 | 1.6 | 1.6 | 0.00 | 0.00 | 0.00 | 10 | 1014.4 |
| 20260506085148 | 17 | 183 | 0.0 | 1.6 | 0.00 | 0.00 | 0.00 | 10 | 1014.3 |
| 20260506084645 | 17 | 196 | 0.0 | 1.6 | 0.00 | 0.00 | 0.00 | 10 | 1014.2 |
| 20260506084141 | 17 | 169 | 0.0 | 0.0 | 0.00 | 0.00 | 0.00 | 10 | 1014.1 |
| 20260506083638 | 16 | 189 | 0.0 | 0.0 | 0.00 | 0.00 | 0.00 | 10 | 1014.1 |
| 20260506083136 | 16 | 153 | 0.0 | 0.0 | 0.00 | 0.00 | 0.00 | 10 | 1014.1 |
| 20260506082633 | 16 | 161 | 0.0 | 0.0 | 0.00 | 0.00 | 0.00 | 10 | 1013.9 |
| 20260506082128 | 16 | 144 | 0.0 | 0.0 | 0.00 | 0.00 | 0.00 | 10 | 1014.2 |
| 20260506081627 | 16 | 156 | 0.0 | 0.0 | 0.00 | 0.00 | 0.00 | 10 | 1014.4 |
| 20260506081124 | 17 | 153 | 0.0 | 3.2 | 0.00 | 0.00 | 0.00 | 10 | 1014.0 |
| 20260506080622 | 17 | 150 | 3.2 | 3.2 | 0.00 | 0.00 | 0.00 | 10 | 1014.0 |
| 20260506080118 | 17 | 166 | 0.0 | 0.0 | 0.00 | 0.00 | 0.00 | 10 | 1014.0 |